Time;durP1;ratioP1;P1;durP2;ratioP2;P2;SDS_P1;SDS_P2;PMS_P1;PMS_P2;Temp;Humidity;BMP_temperature;BMP_pressure;BME280_temperature;BME280_humidity;BME280_pressure;Samples;Min_cycle;Max_cycle;Signal;HPM_P1;HPM_P2
2022/08/18 05:58:54;;;;;;;18.05;8.40;;;19.50;99.90;;;;;;5060733;28;20044;-71
2022/08/18 06:01:35;;;;;;;14.27;7.80;;;19.50;99.90;;;;;;5059793;28;20032;-71
2022/08/18 06:04:07;;;;;;;23.25;8.50;;;19.50;99.90;;;;;;5043179;28;20584;-73
2022/08/18 06:06:36;;;;;;;13.27;6.65;;;19.50;99.90;;;;;;5062178;28;20028;-72
2022/08/18 06:09:12;;;;;;;21.58;8.45;;;19.50;99.90;;;;;;5062787;28;20025;-72
2022/08/18 06:11:38;;;;;;;14.30;7.95;;;19.60;99.90;;;;;;5061941;28;20036;-72
2022/08/18 06:14:04;;;;;;;20.95;8.05;;;19.50;99.90;;;;;;5045827;28;20029;-72
2022/08/18 06:16:41;;;;;;;15.98;8.00;;;19.50;99.90;;;;;;5063316;28;20424;-72
2022/08/18 06:19:36;;;;;;;15.23;7.95;;;19.60;99.90;;;;;;5063005;28;20051;-71
2022/08/18 06:22:12;;;;;;;19.90;7.88;;;19.60;99.90;;;;;;5063119;28;20084;-73
2022/08/18 06:25:02;;;;;;;14.98;8.85;;;19.70;99.90;;;;;;5062852;28;20055;-72
2022/08/18 06:27:49;;;;;;;14.05;7.10;;;19.80;99.90;;;;;;5043477;28;20055;-72
2022/08/18 06:30:23;;;;;;;22.35;8.18;;;19.90;99.90;;;;;;5062818;28;20051;-72
2022/08/18 06:33:08;;;;;;;23.20;8.67;;;19.90;99.90;;;;;;5062932;28;20075;-73
2022/08/18 06:35:43;;;;;;;17.75;8.60;;;20.00;99.90;;;;;;5061535;28;20025;-74
2022/08/18 06:38:51;;;;;;;18.35;7.43;;;20.00;99.90;;;;;;5044713;28;20033;-73
2022/08/18 06:41:41;;;;;;;15.98;8.15;;;20.10;99.90;;;;;;4979643;28;20042;-72
2022/08/18 06:44:22;;;;;;;11.93;7.90;;;20.10;99.90;;;;;;4970927;28;20034;-74
2022/08/18 06:47:14;;;;;;;20.30;7.47;;;20.10;99.90;;;;;;5032159;28;20033;-72
2022/08/18 06:50:04;;;;;;;17.63;7.85;;;20.20;99.90;;;;;;5061628;28;20033;-72
2022/08/18 06:52:34;;;;;;;12.57;7.03;;;20.30;99.90;;;;;;5060748;28;20374;-72
2022/08/18 06:55:07;;;;;;;18.75;7.72;;;20.40;99.90;;;;;;5061675;28;20561;-72
2022/08/18 06:57:36;;;;;;;16.48;7.97;;;20.40;99.90;;;;;;5061093;28;20021;-74
2022/08/18 07:00:15;;;;;;;25.35;7.43;;;20.50;99.90;;;;;;5060053;28;20036;-72
2022/08/18 07:03:13;;;;;;;21.60;7.07;;;20.50;99.90;;;;;;5061984;28;20412;-72
2022/08/18 07:06:04;;;;;;;21.33;6.97;;;20.60;99.90;;;;;;5058160;28;20117;-70
2022/08/18 07:08:40;;;;;;;14.80;7.25;;;20.60;99.90;;;;;;5061254;28;20029;-71
2022/08/18 07:11:31;;;;;;;13.98;6.28;;;20.70;99.90;;;;;;5061604;28;20384;-70
2022/08/18 07:14:10;;;;;;;19.73;7.05;;;20.70;99.90;;;;;;5061949;28;20032;-70
2022/08/18 07:16:36;;;;;;;15.77;6.38;;;20.80;99.90;;;;;;5062473;28;20025;-70
2022/08/18 07:19:15;;;;;;;28.65;7.18;;;20.80;99.90;;;;;;5044307;28;20131;-71
2022/08/18 07:21:44;;;;;;;14.07;6.18;;;20.90;99.90;;;;;;5061763;28;20526;-74
2022/08/18 07:24:24;;;;;;;12.43;5.25;;;21.00;99.90;;;;;;5059270;28;20055;-72
2022/08/18 07:27:21;;;;;;;11.95;5.18;;;21.00;99.90;;;;;;5043825;28;20424;-70
2022/08/18 07:30:20;;;;;;;12.15;5.47;;;21.10;99.90;;;;;;5037392;28;20037;-71
2022/08/18 07:32:47;;;;;;;11.82;6.15;;;;;;;;;;5061931;28;20080;-71
2022/08/18 07:35:18;;;;;;;15.48;5.90;;;21.10;99.90;;;;;;5043750;28;20025;-72
2022/08/18 07:37:52;;;;;;;10.30;6.03;;;21.20;99.90;;;;;;5057773;28;20120;-70
2022/08/18 07:40:44;;;;;;;16.10;6.40;;;21.30;99.90;;;;;;5058872;28;20021;-72
2022/08/18 07:43:41;;;;;;;14.20;6.15;;;21.30;99.90;;;;;;5061017;28;20040;-71
2022/08/18 07:46:25;;;;;;;12.63;6.38;;;21.30;99.90;;;;;;5061428;28;20017;-70
2022/08/18 07:48:50;;;;;;;12.27;5.65;;;21.30;99.90;;;;;;5061297;28;20016;-71
2022/08/18 07:51:17;;;;;;;19.42;5.80;;;21.30;99.90;;;;;;5060735;28;20465;-71
2022/08/18 07:54:18;;;;;;;10.02;5.22;;;21.30;99.90;;;;;;5061451;28;20013;-69
2022/08/18 07:57:09;;;;;;;14.05;6.13;;;21.20;99.90;;;;;;5026781;28;20041;-71
2022/08/18 07:59:58;;;;;;;16.05;6.55;;;21.20;99.90;;;;;;5061082;28;20481;-71
2022/08/18 08:02:37;;;;;;;12.57;6.07;;;21.30;99.90;;;;;;5060183;28;20731;-72
2022/08/18 08:05:16;;;;;;;10.85;6.47;;;21.30;99.90;;;;;;5061052;28;20120;-72
2022/08/18 08:07:54;;;;;;;12.57;6.05;;;21.30;99.90;;;;;;5059474;28;20080;-72
2022/08/18 08:10:50;;;;;;;12.35;6.05;;;21.40;99.90;;;;;;5058307;28;20044;-72
2022/08/18 08:13:51;;;;;;;14.80;6.63;;;21.50;99.90;;;;;;5059837;28;20074;-70
2022/08/18 08:16:23;;;;;;;10.25;5.78;;;21.50;99.90;;;;;;5059865;28;20033;-70
2022/08/18 08:19:16;;;;;;;16.80;5.70;;;21.50;99.90;;;;;;5059899;28;20532;-73
2022/08/18 08:21:52;;;;;;;12.07;6.82;;;21.50;99.90;;;;;;5059978;28;20040;-72
2022/08/18 08:24:35;;;;;;;16.38;6.60;;;21.40;99.90;;;;;;5059954;28;20079;-72
2022/08/18 08:27:23;;;;;;;15.05;7.00;;;21.30;99.90;;;;;;5038948;28;20033;-72
2022/08/18 08:30:19;;;;;;;16.45;6.60;;;21.30;99.90;;;;;;5057741;28;20029;-71
2022/08/18 08:33:05;;;;;;;14.63;5.95;;;21.30;99.90;;;;;;5033394;28;20602;-71
2022/08/18 08:35:51;;;;;;;15.38;6.90;;;21.40;99.90;;;;;;5058274;28;20033;-71
2022/08/18 08:38:24;;;;;;;14.80;6.05;;;21.50;99.90;;;;;;5060640;28;20036;-74
2022/08/18 08:41:02;;;;;;;10.32;5.68;;;21.60;99.90;;;;;;5058263;28;20026;-73
2022/08/18 08:43:41;;;;;;;13.60;5.70;;;21.70;99.90;;;;;;5059939;28;20033;-70
2022/08/18 08:46:59;;;;;;;15.23;6.95;;;21.80;99.90;;;;;;5059920;28;20037;-72
2022/08/18 08:49:41;;;;;;;11.77;6.13;;;21.80;99.90;;;;;;5032649;28;20064;-72
2022/08/18 08:52:19;;;;;;;12.75;5.45;;;22.00;99.90;;;;;;5059030;28;20028;-71
2022/08/18 08:54:53;;;;;;;12.63;5.88;;;22.10;99.90;;;;;;5058115;28;20045;-73
2022/08/18 08:57:24;;;;;;;10.60;6.25;;;22.20;99.90;;;;;;5058748;28;20013;-71
2022/08/18 08:59:51;;;;;;;12.77;5.38;;;22.10;99.90;;;;;;5060578;28;20021;-74
2022/08/18 09:02:16;;;;;;;13.85;5.75;;;22.10;99.90;;;;;;5059914;28;20055;-73
2022/08/18 09:05:01;;;;;;;12.68;4.85;;;22.10;99.90;;;;;;5059293;28;20077;-70
2022/08/18 09:07:35;;;;;;;;;;;22.10;99.90;;;;;;5041833;28;20029;-70
2022/08/18 09:10:24;;;;;;;9.38;5.32;;;22.20;99.90;;;;;;5040691;28;19927;-73
2022/08/18 09:13:18;;;;;;;7.43;5.32;;;22.30;99.90;;;;;;5060368;28;20090;-71
2022/08/18 09:16:16;;;;;;;9.98;5.63;;;22.30;99.90;;;;;;5059283;28;20490;-70
2022/08/18 09:19:06;;;;;;;9.00;5.45;;;22.40;99.90;;;;;;5060020;28;20469;-72
2022/08/18 09:21:58;;;;;;;17.00;4.60;;;22.50;99.90;;;;;;5059032;28;20040;-70
2022/08/18 09:24:28;;;;;;;18.38;5.93;;;22.40;99.90;;;;;;5060533;28;20025;-71
2022/08/18 09:27:02;;;;;;;9.68;4.75;;;22.50;99.90;;;;;;5058598;28;20024;-70
2022/08/18 09:29:37;;;;;;;6.30;4.28;;;22.60;99.90;;;;;;5057844;28;20053;-72
2022/08/18 09:32:18;;;;;;;9.60;5.18;;;22.70;99.90;;;;;;5061097;28;21300;-71
2022/08/18 09:35:06;;;;;;;9.43;5.05;;;23.00;99.90;;;;;;5061614;28;20127;-74
2022/08/18 09:37:44;;;;;;;13.07;4.70;;;23.10;99.90;;;;;;5062013;28;20029;-73
2022/08/18 09:43:29;;;;;;;5.53;3.85;;;23.40;99.90;;;;;;5062952;28;20095;-73
2022/08/18 09:45:59;;;;;;;6.78;4.18;;;23.50;99.90;;;;;;5063422;28;20089;-72
2022/08/18 09:48:36;;;;;;;7.03;4.32;;;23.60;99.90;;;;;;5063500;28;20024;-70
2022/08/18 09:51:14;;;;;;;8.68;4.30;;;23.70;99.90;;;;;;5061274;28;20075;-74
2022/08/18 09:53:46;;;;;;;6.45;3.78;;;23.80;99.90;;;;;;5061620;28;20028;-71
2022/08/18 09:56:14;;;;;;;7.43;4.00;;;23.80;99.90;;;;;;5062009;28;20036;-73
2022/08/18 09:58:48;;;;;;;7.22;4.32;;;23.60;99.90;;;;;;5041839;28;20025;-72
2022/08/18 10:01:22;;;;;;;11.95;3.83;;;23.70;99.90;;;;;;5061982;28;20024;-72
2022/08/18 10:04:19;;;;;;;6.97;3.58;;;23.90;99.90;;;;;;5063103;28;20245;-73
2022/08/18 10:06:47;;;;;;;7.00;3.25;;;24.10;99.90;;;;;;5063280;28;20025;-73
2022/08/18 10:09:49;;;;;;;7.47;3.92;;;24.20;99.90;;;;;;5061818;28;20112;-71
2022/08/18 10:12:43;;;;;;;4.63;2.80;;;24.30;99.90;;;;;;5016473;28;20040;-70
2022/08/18 10:15:29;;;;;;;13.50;4.10;;;24.30;99.90;;;;;;5063451;28;20036;-72
2022/08/18 10:18:04;;;;;;;5.18;3.08;;;24.50;99.90;;;;;;5060865;28;20062;-71
2022/08/18 10:20:59;;;;;;;14.27;3.50;;;24.70;99.90;;;;;;5062542;28;20025;-71
2022/08/18 10:23:49;;;;;;;14.18;4.45;;;24.80;99.90;;;;;;5062993;28;20063;-70
2022/08/18 10:26:30;;;;;;;8.30;3.10;;;25.00;99.90;;;;;;5062131;28;20035;-71
2022/08/18 10:29:02;;;;;;;7.93;3.85;;;25.00;99.90;;;;;;5063289;28;20039;-72
2022/08/18 10:31:31;;;;;;;7.35;3.50;;;24.80;99.90;;;;;;5063040;28;20052;-73
2022/08/18 10:34:06;;;;;;;4.78;2.83;;;24.60;99.90;;;;;;5062459;28;20033;-79
2022/08/18 10:36:34;;;;;;;6.05;3.40;;;24.40;99.90;;;;;;5061663;28;20489;-74
2022/08/18 10:39:04;;;;;;;8.70;2.47;;;24.20;99.90;;;;;;5062234;28;20059;-71
2022/08/18 10:41:32;;;;;;;9.95;3.05;;;24.10;99.90;;;;;;5062746;28;20174;-72
2022/08/18 10:44:01;;;;;;;3.88;2.60;;;23.90;99.90;;;;;;5063115;28;20028;-72
2022/08/18 10:46:42;;;;;;;7.28;3.15;;;23.90;99.90;;;;;;5062713;28;20033;-72
2022/08/18 10:49:12;;;;;;;6.22;2.63;;;23.90;99.90;;;;;;5060731;28;20028;-73
2022/08/18 10:51:49;;;;;;;4.07;2.83;;;23.90;99.90;;;;;;5062696;28;20377;-71
2022/08/18 10:54:30;;;;;;;4.40;2.28;;;23.90;99.90;;;;;;5060630;28;20052;-71
2022/08/18 10:57:18;;;;;;;4.13;2.88;;;24.10;99.90;;;;;;5062785;28;20089;-71
2022/08/18 11:00:03;;;;;;;3.50;2.55;;;24.10;99.90;;;;;;5062474;28;20029;-72
2022/08/18 11:02:51;;;;;;;5.18;3.38;;;24.30;99.90;;;;;;5062452;28;20033;-73
2022/08/18 11:05:23;;;;;;;6.60;2.92;;;24.70;99.90;;;;;;5062066;28;20025;-72
2022/08/18 11:07:51;;;;;;;3.45;2.72;;;25.10;99.90;;;;;;5061323;28;20087;-73
2022/08/18 11:10:33;;;;;;;2.63;2.13;;;25.30;99.90;;;;;;5043779;28;20534;-72
2022/08/18 11:13:08;;;;;;;5.25;3.10;;;25.30;99.90;;;;;;5062484;28;20078;-71
2022/08/18 11:15:51;;;;;;;5.18;2.60;;;25.40;99.90;;;;;;5061658;28;20021;-74
2022/08/18 11:18:27;;;;;;;4.07;3.10;;;25.30;99.90;;;;;;5062485;28;20024;-74
2022/08/18 11:21:31;;;;;;;6.55;3.33;;;25.20;99.90;;;;;;5061299;28;20477;-74
2022/08/18 11:24:12;;;;;;;6.18;3.55;;;25.10;99.90;;;;;;5061434;28;20040;-72
2022/08/18 11:27:00;;;;;;;4.63;2.95;;;25.00;99.90;;;;;;5061856;28;20477;-74
2022/08/18 11:29:33;;;;;;;8.15;3.20;;;25.00;99.90;;;;;;5061319;28;20079;-74
2022/08/18 11:32:10;;;;;;;3.85;2.50;;;25.20;99.90;;;;;;5061971;28;20036;-73
2022/08/18 11:34:44;;;;;;;5.25;3.05;;;25.30;99.90;;;;;;5061344;28;20013;-75
2022/08/18 11:37:27;;;;;;;5.38;3.10;;;25.50;99.90;;;;;;5060470;28;20028;-73
2022/08/18 11:39:58;;;;;;;6.28;2.65;;;25.40;99.90;;;;;;5061609;28;20048;-71
2022/08/18 11:42:34;;;;;;;9.30;3.33;;;25.50;99.90;;;;;;5061361;28;20032;-73
2022/08/18 11:45:16;;;;;;;19.83;3.80;;;25.80;99.90;;;;;;5061101;28;20057;-73
2022/08/18 11:48:00;;;;;;;4.45;2.55;;;26.00;99.90;;;;;;5061616;28;20040;-72
2022/08/18 11:50:31;;;;;;;2.73;2.30;;;26.10;99.90;;;;;;5060906;28;20057;-72
2022/08/18 11:53:12;;;;;;;4.43;2.53;;;26.20;99.90;;;;;;5061007;28;20562;-70
2022/08/18 11:55:39;;;;;;;5.82;2.58;;;26.10;99.90;;;;;;5061410;28;20136;-71
2022/08/18 11:58:05;;;;;;;5.72;2.80;;;26.10;99.90;;;;;;5060984;28;20100;-71
2022/08/18 12:00:46;;;;;;;9.88;2.90;;;26.00;99.90;;;;;;5041498;28;20033;-71
2022/08/18 12:03:40;;;;;;;15.07;2.83;;;25.80;99.90;;;;;;5060630;28;20033;-72
2022/08/18 12:06:24;;;;;;;4.70;2.63;;;25.60;99.90;;;;;;5061329;28;20017;-72
2022/08/18 12:08:56;;;;;;;5.03;2.25;;;25.60;99.90;;;;;;5061337;28;20029;-69
2022/08/18 12:11:50;;;;;;;6.68;2.50;;;25.80;99.90;;;;;;5060417;28;20029;-72
2022/08/18 12:14:22;;;;;;;5.10;2.47;;;25.80;99.90;;;;;;5046355;28;20037;-72
2022/08/18 12:16:48;;;;;;;3.05;2.17;;;25.80;99.90;;;;;;5060707;28;20024;-70
2022/08/18 12:19:14;;;;;;;4.00;2.60;;;25.60;99.90;;;;;;5060199;28;20029;-73
2022/08/18 12:21:45;;;;;;;6.43;2.40;;;25.50;99.90;;;;;;5060275;28;20048;-70
2022/08/18 12:24:21;;;;;;;5.60;2.92;;;25.50;99.90;;;;;;5060650;28;20389;-74
2022/08/18 12:26:48;;;;;;;3.78;2.15;;;25.60;99.90;;;;;;5060728;28;20055;-74
2022/08/18 12:29:15;;;;;;;5.32;2.97;;;25.70;99.90;;;;;;5060614;28;20013;-75
2022/08/18 12:31:40;;;;;;;4.50;2.08;;;25.70;99.90;;;;;;5061090;28;20025;-73
2022/08/18 12:34:06;;;;;;;4.43;2.40;;;25.60;99.90;;;;;;5061574;28;20036;-72
2022/08/18 12:36:32;;;;;;;5.28;2.70;;;25.50;99.90;;;;;;5060588;28;20480;-71
2022/08/18 12:38:58;;;;;;;3.45;2.22;;;25.50;99.90;;;;;;5060919;28;20092;-72
2022/08/18 12:41:27;;;;;;;3.55;2.75;;;25.50;99.90;;;;;;5061470;28;20089;-76
2022/08/18 12:43:53;;;;;;;11.27;2.83;;;25.40;99.90;;;;;;5060261;28;20048;-71
2022/08/18 12:46:19;;;;;;;7.13;2.55;;;25.30;99.90;;;;;;5060822;28;20365;-70
2022/08/18 12:48:45;;;;;;;3.97;2.47;;;25.30;99.90;;;;;;5061390;28;20057;-72
2022/08/18 12:51:12;;;;;;;13.77;2.88;;;25.40;99.90;;;;;;5060681;28;20029;-73
2022/08/18 12:53:42;;;;;;;5.20;2.95;;;25.40;99.90;;;;;;5060812;28;20021;-75
2022/08/18 12:56:22;;;;;;;5.25;2.45;;;25.50;99.90;;;;;;5021325;28;20104;-71
2022/08/18 12:58:48;;;;;;;3.70;2.03;;;25.60;99.90;;;;;;5018159;28;20030;-70
2022/08/18 13:01:15;;;;;;;3.67;2.22;;;25.60;99.90;;;;;;5022352;28;20029;-72
2022/08/18 13:03:43;;;;;;;2.95;1.95;;;25.80;99.90;;;;;;5025032;28;20022;-72
2022/08/18 13:06:10;;;;;;;3.78;2.28;;;26.00;99.90;;;;;;5023389;28;20022;-73
2022/08/18 13:08:37;;;;;;;2.85;2.15;;;26.00;99.90;;;;;;5024553;28;20756;-71
2022/08/18 13:11:09;;;;;;;3.83;2.65;;;25.90;99.90;;;;;;5024037;28;20033;-72
2022/08/18 13:13:36;;;;;;;4.90;2.08;;;25.90;99.90;;;;;;5023889;28;20030;-73
2022/08/18 13:16:02;;;;;;;4.72;2.08;;;25.80;99.90;;;;;;5023700;28;20056;-73
2022/08/18 13:18:28;;;;;;;3.83;2.03;;;25.70;99.90;;;;;;5022044;28;20682;-70
2022/08/18 13:20:53;;;;;;;6.65;2.22;;;25.60;99.90;;;;;;5023649;28;20121;-70
2022/08/18 13:23:19;;;;;;;4.57;2.63;;;25.40;99.90;;;;;;5020203;28;20049;-71
2022/08/18 13:25:44;;;;;;;5.00;2.28;;;25.30;99.90;;;;;;5022734;28;20034;-71
2022/08/18 13:28:10;;;;;;;3.45;2.05;;;25.20;99.90;;;;;;5023760;28;20034;-70
2022/08/18 13:30:36;;;;;;;2.47;1.65;;;25.20;99.90;;;;;;5024812;28;20021;-71
2022/08/18 13:33:02;;;;;;;20.25;2.88;;;25.10;99.90;;;;;;5024297;28;20066;-72
2022/08/18 13:35:28;;;;;;;5.97;2.33;;;25.10;99.90;;;;;;5024599;28;20026;-70
2022/08/18 13:37:54;;;;;;;7.13;2.25;;;25.20;99.90;;;;;;5024576;28;20028;-70
2022/08/18 13:40:21;;;;;;;8.13;2.30;;;25.20;99.90;;;;;;5022514;28;20022;-71
2022/08/18 13:42:48;;;;;;;7.20;2.25;;;25.50;99.90;;;;;;5023663;28;20541;-72
2022/08/18 13:45:20;;;;;;;5.60;2.47;;;25.60;99.90;;;;;;5020856;28;20053;-70
2022/08/18 13:47:47;;;;;;;3.67;2.33;;;25.70;99.90;;;;;;5019611;28;20200;-70
2022/08/18 13:50:14;;;;;;;12.32;2.85;;;25.60;99.90;;;;;;5022853;28;20026;-70
2022/08/18 13:52:40;;;;;;;11.27;2.92;;;26.00;99.90;;;;;;5023328;28;20034;-73
2022/08/18 13:55:11;;;;;;;7.85;2.72;;;26.20;99.90;;;;;;5043950;28;20067;-72
2022/08/18 13:57:38;;;;;;;4.38;2.40;;;26.70;99.90;;;;;;5063320;28;20025;-73
2022/08/18 14:00:07;;;;;;;6.80;2.22;;;27.00;99.90;;;;;;5063118;28;20025;-74
2022/08/18 14:02:34;;;;;;;4.40;2.28;;;27.50;99.90;;;;;;5043955;28;20556;-73
2022/08/18 14:05:00;;;;;;;5.40;1.88;;;27.80;99.90;;;;;;5062842;28;20029;-73
2022/08/18 14:07:26;;;;;;;8.88;2.28;;;27.80;99.90;;;;;;5044490;28;20380;-72
2022/08/18 14:09:52;;;;;;;3.42;2.30;;;27.80;99.90;;;;;;5061529;28;20041;-71
2022/08/18 14:12:22;;;;;;;12.38;2.20;;;27.90;99.90;;;;;;5062086;28;20029;-73
2022/08/18 14:14:48;;;;;;;3.20;1.50;;;28.00;99.90;;;;;;5059180;28;20032;-70
2022/08/18 14:17:18;;;;;;;5.97;1.77;;;28.00;99.90;;;;;;5060374;28;20033;-72
2022/08/18 14:27:58;;;;;;;6.65;1.48;;;29.30;99.90;;;;;;5062812;28;19958;-72
2022/08/18 14:30:24;;;;;;;9.48;2.30;;;29.40;99.90;;;;;;5062937;28;20021;-70
2022/08/18 14:32:51;;;;;;;4.82;2.00;;;29.60;99.90;;;;;;5059926;28;20055;-71
2022/08/18 14:35:18;;;;;;;4.05;2.20;;;29.50;99.90;;;;;;5062419;28;20029;-72
2022/08/18 14:37:44;;;;;;;11.80;1.98;;;29.50;99.90;;;;;;5058868;28;20036;-70
2022/08/18 14:40:10;;;;;;;2.40;1.67;;;29.90;99.90;;;;;;5059949;28;20040;-72
2022/08/18 14:42:41;;;;;;;6.43;1.45;;;29.90;99.90;;;;;;5058648;28;20374;-71
2022/08/18 14:45:08;;;;;;;8.55;2.10;;;30.10;99.90;;;;;;5060010;28;20060;-72
2022/08/18 14:47:34;;;;;;;7.18;1.85;;;30.20;99.90;;;;;;5057843;28;20059;-71
2022/08/18 14:50:02;;;;;;;4.55;2.28;;;29.60;99.90;;;;;;5062430;28;20021;-71
2022/08/18 14:52:27;;;;;;;3.03;2.15;;;29.10;99.90;;;;;;5061202;28;20071;-74
2022/08/18 14:54:54;;;;;;;3.47;1.77;;;28.60;99.90;;;;;;5061313;28;20061;-71
2022/08/18 14:57:19;;;;;;;2.20;1.45;;;28.60;99.90;;;;;;5060837;28;20092;-72
2022/08/18 14:59:45;;;;;;;14.10;2.22;;;28.60;99.90;;;;;;5060716;28;20073;-71
2022/08/18 15:02:11;;;;;;;3.03;1.70;;;28.30;99.90;;;;;;5062503;28;20048;-70
2022/08/18 15:04:37;;;;;;;2.90;2.03;;;28.00;99.90;;;;;;5061987;28;20055;-71
2022/08/18 15:07:06;;;;;;;3.42;1.60;;;27.60;99.90;;;;;;5060189;28;20029;-71
2022/08/18 15:09:33;;;;;;;9.75;2.28;;;27.20;99.90;;;;;;5043561;28;20024;-70
2022/08/18 15:11:59;;;;;;;5.80;2.60;;;26.90;99.90;;;;;;5060366;28;20036;-71
2022/08/18 15:14:29;;;;;;;4.50;1.90;;;27.10;99.90;;;;;;5061092;28;20099;-73
2022/08/18 15:16:55;;;;;;;6.00;2.40;;;27.30;99.90;;;;;;5043807;28;20032;-72
2022/08/18 15:19:21;;;;;;;4.63;1.85;;;27.20;99.90;;;;;;5061461;28;20079;-71
2022/08/18 15:27:38;;;;;;;3.92;2.30;;;27.20;99.90;;;;;;5061148;28;20060;-70
2022/08/18 15:30:07;;;;;;;3.25;1.80;;;27.20;99.90;;;;;;5060923;28;20029;-71
2022/08/18 15:32:33;;;;;;;1.90;1.58;;;27.70;99.90;;;;;;5060720;28;20032;-72
2022/08/18 15:34:59;;;;;;;5.82;2.00;;;27.90;99.90;;;;;;5061732;28;20808;-69
2022/08/18 15:37:25;;;;;;;5.93;1.85;;;28.40;99.90;;;;;;5061412;28;20044;-74
2022/08/18 15:40:13;;;;;;;3.28;1.77;;;28.70;99.90;;;;;;5061395;28;20021;-72
2022/08/18 15:42:49;;;;;;;6.47;2.38;;;28.90;99.90;;;;;;5061169;28;20028;-73
2022/08/18 15:45:24;;;;;;;6.57;2.38;;;29.30;99.90;;;;;;5061407;28;20044;-71
2022/08/18 15:47:50;;;;;;;3.40;1.55;;;29.20;99.90;;;;;;5060717;28;20082;-70
2022/08/18 15:50:16;;;;;;;3.10;1.75;;;29.10;99.90;;;;;;5061192;28;20215;-71
2022/08/18 15:53:10;;;;;;;1.60;1.17;;;29.20;99.90;;;;;;5060982;28;20057;-72
2022/08/18 15:55:38;;;;;;;3.20;2.00;;;29.40;99.90;;;;;;5058208;28;20070;-73
2022/08/18 15:58:10;;;;;;;1.75;1.42;;;29.20;99.90;;;;;;5056612;28;21328;-75
2022/08/18 16:00:37;;;;;;;3.97;1.83;;;28.90;99.90;;;;;;5057028;28;20456;-70
2022/08/18 16:03:06;;;;;;;5.68;1.83;;;28.30;99.90;;;;;;5034204;28;20084;-73
2022/08/18 16:05:36;;;;;;;9.20;2.13;;;27.80;99.90;;;;;;5057938;28;20040;-70
2022/08/18 16:08:05;;;;;;;3.22;1.80;;;27.30;99.90;;;;;;5057817;28;20033;-72
2022/08/18 16:10:35;;;;;;;3.30;2.03;;;26.90;99.90;;;;;;5057687;28;20508;-72
2022/08/18 16:13:04;;;;;;;6.10;2.22;;;26.70;99.90;;;;;;5060170;28;20025;-72
2022/08/18 16:15:40;;;;;;;8.60;2.08;;;26.40;99.90;;;;;;5060804;28;20478;-73
2022/08/18 16:18:07;;;;;;;4.95;2.30;;;26.00;99.90;;;;;;5060461;28;20112;-73
2022/08/18 16:20:35;;;;;;;8.85;2.58;;;26.00;99.90;;;;;;5059885;28;20029;-76
2022/08/18 16:23:00;;;;;;;5.50;2.50;;;26.40;99.90;;;;;;5061201;28;20107;-72
2022/08/18 16:25:27;;;;;;;4.75;2.22;;;26.70;99.90;;;;;;5061629;28;20025;-71
2022/08/18 16:27:54;;;;;;;3.15;2.05;;;26.80;99.90;;;;;;5060209;28;20028;-71
2022/08/18 16:30:23;;;;;;;2.90;1.70;;;27.00;99.90;;;;;;5061108;28;20082;-74
2022/08/18 16:32:50;;;;;;;4.18;2.00;;;27.30;99.90;;;;;;5058946;28;20040;-72
2022/08/18 16:35:20;;;;;;;4.65;1.75;;;27.60;99.90;;;;;;5060756;28;20573;-70
2022/08/18 16:37:48;;;;;;;4.20;2.03;;;27.80;99.90;;;;;;5046555;28;20036;-74
2022/08/18 16:40:15;;;;;;;3.38;1.83;;;27.90;99.90;;;;;;5064032;28;20126;-71
2022/08/18 16:42:42;;;;;;;3.75;1.70;;;27.80;99.90;;;;;;5063519;28;20059;-73
2022/08/18 16:45:08;;;;;;;3.10;1.65;;;27.80;99.90;;;;;;5064226;28;20033;-70
2022/08/18 16:47:37;;;;;;;4.45;1.52;;;27.70;99.90;;;;;;5065510;28;20512;-72
2022/08/18 16:50:07;;;;;;;2.85;1.83;;;27.20;99.90;;;;;;5065208;28;20044;-70
2022/08/18 16:52:34;;;;;;;8.68;2.25;;;26.70;99.90;;;;;;5064733;28;20029;-71
2022/08/18 16:55:01;;;;;;;2.65;1.58;;;26.80;99.90;;;;;;5064165;28;20037;-71
2022/08/18 17:05:40;;;;;;;11.98;1.20;;;25.40;99.90;;;;;;5063123;28;20114;-71
2022/08/18 17:08:05;;;;;;;1.52;1.20;;;25.10;99.90;;;;;;5064205;28;20021;-72
2022/08/18 17:10:36;;;;;;;2.47;1.38;;;24.80;99.90;;;;;;5064622;28;20373;-72
2022/08/18 17:13:04;;;;;;;3.30;1.98;;;24.70;99.90;;;;;;5064446;28;20094;-72
2022/08/18 17:15:30;;;;;;;3.50;1.67;;;24.80;99.90;;;;;;5064437;28;20040;-73
2022/08/18 17:17:56;;;;;;;3.13;2.03;;;24.60;99.90;;;;;;5064386;28;20096;-73
2022/08/18 17:20:22;;;;;;;3.67;1.73;;;24.40;99.90;;;;;;5064382;28;20029;-72
2022/08/18 17:22:47;;;;;;;2.55;1.55;;;24.20;99.90;;;;;;5064233;28;20033;-71
2022/08/18 17:25:20;;;;;;;5.05;1.95;;;24.00;99.90;;;;;;5063244;28;20043;-71
2022/08/18 17:27:48;;;;;;;3.42;1.75;;;23.90;99.90;;;;;;5062702;28;20036;-70
2022/08/18 17:30:20;;;;;;;6.13;1.63;;;23.80;99.90;;;;;;5045909;28;20119;-69
2022/08/18 17:33:00;;;;;;;3.50;1.52;;;23.70;99.90;;;;;;5062688;28;20029;-72
2022/08/18 17:35:35;;;;;;;3.72;1.80;;;23.60;99.90;;;;;;5062819;28;20040;-70
2022/08/18 17:38:21;;;;;;;1.90;1.58;;;23.40;99.90;;;;;;5063656;28;20035;-70
2022/08/18 17:40:49;;;;;;;3.70;2.05;;;23.30;99.90;;;;;;5062562;28;20096;-70
2022/08/18 17:43:19;;;;;;;1.45;1.00;;;23.20;99.90;;;;;;5062461;28;20040;-70
2022/08/18 17:45:52;;;;;;;5.75;1.77;;;23.30;99.90;;;;;;5063479;28;20025;-69
2022/08/18 17:48:35;;;;;;;4.93;1.83;;;23.30;99.90;;;;;;5042618;28;20033;-70
2022/08/18 17:53:51;;;;;;;9.00;1.63;;;23.60;99.90;;;;;;5061232;28;20108;-69
2022/08/18 17:56:21;;;;;;;2.30;1.42;;;23.70;99.90;;;;;;5063284;28;20041;-70
2022/08/18 17:58:55;;;;;;;2.55;1.48;;;23.80;99.90;;;;;;5063031;28;20112;-70
2022/08/18 18:01:22;;;;;;;2.03;1.33;;;23.80;99.90;;;;;;5061692;28;20025;-70
2022/08/18 18:03:49;;;;;;;3.47;1.52;;;23.80;99.90;;;;;;5062228;28;20071;-68
2022/08/18 18:06:36;;;;;;;8.13;1.67;;;23.60;99.90;;;;;;5061902;28;20710;-68
2022/08/18 18:09:05;;;;;;;5.20;1.40;;;23.60;99.90;;;;;;5062705;28;20068;-69
2022/08/18 18:11:37;;;;;;;2.10;1.10;;;23.40;99.90;;;;;;5061498;28;20091;-68
2022/08/18 18:14:26;;;;;;;4.55;0.80;;;23.20;99.90;;;;;;5063387;28;20094;-68
2022/08/18 18:17:07;;;;;;;2.15;1.25;;;23.00;99.90;;;;;;5063061;28;20017;-71
2022/08/18 18:19:34;;;;;;;2.38;1.45;;;22.90;99.90;;;;;;5062339;28;20532;-71
2022/08/18 18:22:07;;;;;;;11.75;1.63;;;22.70;99.90;;;;;;5062283;28;20044;-72
2022/08/18 18:24:36;;;;;;;13.43;1.40;;;22.50;99.90;;;;;;5058843;28;20445;-71
2022/08/18 18:27:31;;;;;;;2.72;1.25;;;22.30;99.90;;;;;;5059329;28;20033;-71
2022/08/18 18:30:05;;;;;;;3.45;1.35;;;22.20;99.90;;;;;;5059129;28;20103;-71
2022/08/18 18:32:55;;;;;;;3.05;1.08;;;21.90;99.90;;;;;;5059878;28;20037;-72
2022/08/18 18:35:24;;;;;;;2.58;1.30;;;21.80;99.90;;;;;;5062072;28;20021;-71
2022/08/18 18:37:57;;;;;;;9.52;1.55;;;21.60;99.90;;;;;;5057282;28;20029;-71
2022/08/18 18:40:35;;;;;;;2.47;1.45;;;21.40;99.90;;;;;;5060926;28;20047;-73
2022/08/18 18:43:38;;;;;;;5.95;1.35;;;21.20;99.90;;;;;;5043105;28;20051;-72
2022/08/18 18:46:15;;;;;;;2.38;1.35;;;21.10;99.90;;;;;;5062716;28;20044;-72
2022/08/18 18:49:10;;;;;;;1.60;1.05;;;21.00;99.90;;;;;;5060850;28;20056;-71
2022/08/18 18:51:52;;;;;;;3.33;1.75;;;21.00;99.90;;;;;;5057386;28;20033;-72
2022/08/18 18:54:53;;;;;;;2.00;1.08;;;20.80;99.90;;;;;;5061261;28;20052;-73
2022/08/18 18:57:30;;;;;;;1.23;0.90;;;20.70;99.90;;;;;;5060709;28;20076;-73
2022/08/18 19:00:22;;;;;;;3.17;1.45;;;20.70;99.90;;;;;;5061963;28;20029;-74
2022/08/18 19:03:01;;;;;;;8.38;1.25;;;20.60;99.90;;;;;;5043881;28;20473;-72
2022/08/18 19:05:49;;;;;;;5.07;1.95;;;20.60;99.90;;;;;;5062423;28;20086;-72
2022/08/18 19:08:14;;;;;;;5.18;1.50;;;20.60;99.90;;;;;;5044176;28;20025;-73
2022/08/18 19:11:28;;;;;;;2.00;1.17;;;20.50;99.90;;;;;;5061633;28;20138;-72
2022/08/18 19:14:01;;;;;;;10.02;2.25;;;20.50;99.90;;;;;;5050660;28;20045;-73
2022/08/18 19:16:32;;;;;;;1.45;1.10;;;20.50;99.90;;;;;;5061796;28;20033;-72
2022/08/18 19:19:22;;;;;;;1.92;0.98;;;20.40;99.90;;;;;;5060607;28;20021;-71
2022/08/18 19:21:54;;;;;;;2.25;1.50;;;20.40;99.90;;;;;;5044619;28;20053;-72
2022/08/18 19:24:22;;;;;;;2.67;1.50;;;20.30;99.90;;;;;;5060315;28;20527;-72
2022/08/18 19:26:52;;;;;;;3.90;1.60;;;20.30;99.90;;;;;;5061806;28;20032;-71
2022/08/18 19:29:24;;;;;;;3.42;1.80;;;20.30;99.90;;;;;;5058915;28;20071;-72
2022/08/18 19:32:12;;;;;;;1.85;1.02;;;20.20;99.90;;;;;;5060356;28;20048;-71
2022/08/18 19:34:42;;;;;;;9.35;1.48;;;20.20;99.90;;;;;;5060146;28;20032;-72
2022/08/18 19:37:31;;;;;;;1.98;0.85;;;20.20;99.90;;;;;;5059859;28;20092;-71
2022/08/18 19:40:13;;;;;;;1.48;0.98;;;20.10;99.90;;;;;;5058935;28;20075;-71
2022/08/18 19:43:02;;;;;;;0.93;0.85;;;20.10;99.90;;;;;;5059817;28;20059;-71
2022/08/18 19:45:49;;;;;;;7.10;1.45;;;20.00;99.90;;;;;;5056683;28;20230;-71
2022/08/18 19:48:25;;;;;;;2.13;1.33;;;20.00;99.90;;;;;;5061858;28;20112;-72
2022/08/18 19:51:04;;;;;;;4.15;1.50;;;19.90;99.90;;;;;;5061649;28;20024;-71
2022/08/18 19:54:03;;;;;;;2.38;1.25;;;19.90;99.90;;;;;;5061702;28;20040;-72